sensor_id;sensor_type;location;lat;lon;timestamp;temperature;humidity
2751;DHT22;1383;48.362;10.908;2024-03-17T00:00:32;9.70;55.70
2751;DHT22;1383;48.362;10.908;2024-03-17T00:02:58;9.70;56.10
2751;DHT22;1383;48.362;10.908;2024-03-17T00:05:24;9.70;56.40
2751;DHT22;1383;48.362;10.908;2024-03-17T00:07:49;9.70;56.50
2751;DHT22;1383;48.362;10.908;2024-03-17T00:10:15;9.70;56.40
2751;DHT22;1383;48.362;10.908;2024-03-17T00:12:41;9.70;56.60
2751;DHT22;1383;48.362;10.908;2024-03-17T00:15:08;9.80;56.90
2751;DHT22;1383;48.362;10.908;2024-03-17T00:17:34;9.80;56.90
2751;DHT22;1383;48.362;10.908;2024-03-17T00:20:01;9.80;57.00
2751;DHT22;1383;48.362;10.908;2024-03-17T00:22:37;9.80;56.90
2751;DHT22;1383;48.362;10.908;2024-03-17T00:25:06;9.90;57.20
2751;DHT22;1383;48.362;10.908;2024-03-17T00:27:32;9.90;57.00
2751;DHT22;1383;48.362;10.908;2024-03-17T00:29:59;9.90;56.80
2751;DHT22;1383;48.362;10.908;2024-03-17T00:32:24;9.90;57.20
2751;DHT22;1383;48.362;10.908;2024-03-17T00:34:50;10.00;56.00
2751;DHT22;1383;48.362;10.908;2024-03-17T00:37:16;10.00;56.80
2751;DHT22;1383;48.362;10.908;2024-03-17T00:39:43;10.00;56.40
2751;DHT22;1383;48.362;10.908;2024-03-17T00:42:09;10.00;56.30
2751;DHT22;1383;48.362;10.908;2024-03-17T00:44:35;10.00;56.30
2751;DHT22;1383;48.362;10.908;2024-03-17T00:47:00;10.00;56.30
2751;DHT22;1383;48.362;10.908;2024-03-17T00:49:26;10.00;56.80
2751;DHT22;1383;48.362;10.908;2024-03-17T00:51:52;9.90;58.40
2751;DHT22;1383;48.362;10.908;2024-03-17T00:54:18;9.80;58.70
2751;DHT22;1383;48.362;10.908;2024-03-17T00:56:44;9.80;58.70
2751;DHT22;1383;48.362;10.908;2024-03-17T00:59:10;9.70;59.00
2751;DHT22;1383;48.362;10.908;2024-03-17T01:01:36;9.50;60.00
2751;DHT22;1383;48.362;10.908;2024-03-17T01:04:02;9.50;61.50
2751;DHT22;1383;48.362;10.908;2024-03-17T01:06:27;9.50;61.80
2751;DHT22;1383;48.362;10.908;2024-03-17T01:08:53;9.40;62.30
2751;DHT22;1383;48.362;10.908;2024-03-17T01:11:19;9.40;63.10
2751;DHT22;1383;48.362;10.908;2024-03-17T01:13:46;9.40;63.80
2751;DHT22;1383;48.362;10.908;2024-03-17T01:16:13;9.30;64.40
2751;DHT22;1383;48.362;10.908;2024-03-17T01:18:39;9.30;64.80
2751;DHT22;1383;48.362;10.908;2024-03-17T01:21:06;9.20;65.50
2751;DHT22;1383;48.362;10.908;2024-03-17T01:23:32;9.10;66.20
2751;DHT22;1383;48.362;10.908;2024-03-17T01:25:58;9.10;66.80
2751;DHT22;1383;48.362;10.908;2024-03-17T01:28:24;9.10;67.80
2751;DHT22;1383;48.362;10.908;2024-03-17T01:30:50;9.10;68.10
2751;DHT22;1383;48.362;10.908;2024-03-17T01:33:16;9.00;68.40
2751;DHT22;1383;48.362;10.908;2024-03-17T01:35:43;8.90;69.70
2751;DHT22;1383;48.362;10.908;2024-03-17T01:38:09;8.80;70.90
2751;DHT22;1383;48.362;10.908;2024-03-17T01:40:36;8.80;71.20
2751;DHT22;1383;48.362;10.908;2024-03-17T01:43:02;8.80;71.70
2751;DHT22;1383;48.362;10.908;2024-03-17T01:45:30;8.70;72.70
2751;DHT22;1383;48.362;10.908;2024-03-17T01:47:59;8.70;73.10
2751;DHT22;1383;48.362;10.908;2024-03-17T01:50:26;8.60;73.90
2751;DHT22;1383;48.362;10.908;2024-03-17T01:52:57;8.50;74.90
2751;DHT22;1383;48.362;10.908;2024-03-17T01:55:26;8.40;75.80
2751;DHT22;1383;48.362;10.908;2024-03-17T01:57:53;8.30;77.10
2751;DHT22;1383;48.362;10.908;2024-03-17T02:00:19;8.30;78.40
2751;DHT22;1383;48.362;10.908;2024-03-17T02:02:45;8.30;78.30
2751;DHT22;1383;48.362;10.908;2024-03-17T02:05:11;8.30;78.70
2751;DHT22;1383;48.362;10.908;2024-03-17T02:07:37;8.30;79.10
2751;DHT22;1383;48.362;10.908;2024-03-17T02:10:03;8.30;79.50
2751;DHT22;1383;48.362;10.908;2024-03-17T02:12:31;8.30;79.70
2751;DHT22;1383;48.362;10.908;2024-03-17T02:15:00;8.30;80.90
2751;DHT22;1383;48.362;10.908;2024-03-17T02:17:26;8.30;80.20
2751;DHT22;1383;48.362;10.908;2024-03-17T02:19:55;8.30;80.30
2751;DHT22;1383;48.362;10.908;2024-03-17T02:22:21;8.30;80.70
2751;DHT22;1383;48.362;10.908;2024-03-17T02:24:46;8.30;80.10
2751;DHT22;1383;48.362;10.908;2024-03-17T02:27:13;8.30;80.10
2751;DHT22;1383;48.362;10.908;2024-03-17T02:29:39;8.20;79.80
2751;DHT22;1383;48.362;10.908;2024-03-17T02:32:08;8.20;80.50
2751;DHT22;1383;48.362;10.908;2024-03-17T02:34:35;8.20;81.20
2751;DHT22;1383;48.362;10.908;2024-03-17T02:37:01;8.20;81.20
2751;DHT22;1383;48.362;10.908;2024-03-17T02:39:29;8.20;81.10
2751;DHT22;1383;48.362;10.908;2024-03-17T02:42:09;8.30;81.00
2751;DHT22;1383;48.362;10.908;2024-03-17T02:44:36;8.30;81.00
2751;DHT22;1383;48.362;10.908;2024-03-17T02:47:03;8.40;81.60
2751;DHT22;1383;48.362;10.908;2024-03-17T02:49:31;8.40;81.50
2751;DHT22;1383;48.362;10.908;2024-03-17T02:52:08;8.50;81.00
2751;DHT22;1383;48.362;10.908;2024-03-17T02:54:38;8.50;79.60
2751;DHT22;1383;48.362;10.908;2024-03-17T02:57:05;8.40;79.20
2751;DHT22;1383;48.362;10.908;2024-03-17T02:59:32;8.20;79.00
2751;DHT22;1383;48.362;10.908;2024-03-17T03:01:59;8.10;79.60
2751;DHT22;1383;48.362;10.908;2024-03-17T03:04:26;8.20;80.40
2751;DHT22;1383;48.362;10.908;2024-03-17T03:06:52;8.20;80.50
2751;DHT22;1383;48.362;10.908;2024-03-17T03:09:18;8.20;80.60
2751;DHT22;1383;48.362;10.908;2024-03-17T03:11:57;8.30;80.90
2751;DHT22;1383;48.362;10.908;2024-03-17T03:14:22;8.30;80.80
2751;DHT22;1383;48.362;10.908;2024-03-17T03:16:48;8.40;80.40
2751;DHT22;1383;48.362;10.908;2024-03-17T03:19:16;8.40;80.10
2751;DHT22;1383;48.362;10.908;2024-03-17T03:21:42;8.40;79.60
2751;DHT22;1383;48.362;10.908;2024-03-17T03:24:08;8.50;80.20
2751;DHT22;1383;48.362;10.908;2024-03-17T03:26:34;8.50;81.20
2751;DHT22;1383;48.362;10.908;2024-03-17T03:29:00;8.50;80.50
2751;DHT22;1383;48.362;10.908;2024-03-17T03:31:27;8.50;80.30
2751;DHT22;1383;48.362;10.908;2024-03-17T03:33:52;8.60;80.30
2751;DHT22;1383;48.362;10.908;2024-03-17T03:36:20;8.60;80.00
2751;DHT22;1383;48.362;10.908;2024-03-17T03:38:46;8.60;79.90
2751;DHT22;1383;48.362;10.908;2024-03-17T03:41:14;8.60;78.90
2751;DHT22;1383;48.362;10.908;2024-03-17T03:43:40;8.60;78.20
2751;DHT22;1383;48.362;10.908;2024-03-17T03:46:07;8.70;78.00
2751;DHT22;1383;48.362;10.908;2024-03-17T03:48:35;8.60;77.20
2751;DHT22;1383;48.362;10.908;2024-03-17T03:51:07;8.60;77.80
2751;DHT22;1383;48.362;10.908;2024-03-17T03:53:35;8.60;78.00
2751;DHT22;1383;48.362;10.908;2024-03-17T03:56:05;8.60;78.10
2751;DHT22;1383;48.362;10.908;2024-03-17T03:58:37;8.70;78.20
2751;DHT22;1383;48.362;10.908;2024-03-17T04:01:06;8.50;77.50
2751;DHT22;1383;48.362;10.908;2024-03-17T04:03:38;8.50;77.70
2751;DHT22;1383;48.362;10.908;2024-03-17T04:06:05;8.50;78.00
2751;DHT22;1383;48.362;10.908;2024-03-17T04:08:35;8.50;78.20
2751;DHT22;1383;48.362;10.908;2024-03-17T04:11:02;8.50;78.40
2751;DHT22;1383;48.362;10.908;2024-03-17T04:13:29;8.60;78.30
2751;DHT22;1383;48.362;10.908;2024-03-17T04:15:58;8.60;78.10
2751;DHT22;1383;48.362;10.908;2024-03-17T04:18:25;8.60;77.50
2751;DHT22;1383;48.362;10.908;2024-03-17T04:20:54;8.70;76.90
2751;DHT22;1383;48.362;10.908;2024-03-17T04:23:22;8.70;76.50
2751;DHT22;1383;48.362;10.908;2024-03-17T04:25:50;8.70;75.80
2751;DHT22;1383;48.362;10.908;2024-03-17T04:28:16;8.70;75.40
2751;DHT22;1383;48.362;10.908;2024-03-17T04:30:42;8.50;75.50
2751;DHT22;1383;48.362;10.908;2024-03-17T04:33:09;8.50;76.70
2751;DHT22;1383;48.362;10.908;2024-03-17T04:35:37;8.40;77.30
2751;DHT22;1383;48.362;10.908;2024-03-17T04:38:04;8.30;78.10
2751;DHT22;1383;48.362;10.908;2024-03-17T04:40:32;8.40;78.90
2751;DHT22;1383;48.362;10.908;2024-03-17T04:42:58;8.50;78.50
2751;DHT22;1383;48.362;10.908;2024-03-17T04:45:23;8.50;77.70
2751;DHT22;1383;48.362;10.908;2024-03-17T04:47:49;8.40;76.70
2751;DHT22;1383;48.362;10.908;2024-03-17T04:50:15;8.30;78.30
2751;DHT22;1383;48.362;10.908;2024-03-17T04:52:41;8.30;79.50
2751;DHT22;1383;48.362;10.908;2024-03-17T04:55:07;8.30;79.80
2751;DHT22;1383;48.362;10.908;2024-03-17T04:57:33;8.30;80.00
2751;DHT22;1383;48.362;10.908;2024-03-17T04:59:59;8.30;79.90
2751;DHT22;1383;48.362;10.908;2024-03-17T05:02:25;8.30;80.10
2751;DHT22;1383;48.362;10.908;2024-03-17T05:04:51;8.20;79.40
2751;DHT22;1383;48.362;10.908;2024-03-17T05:07:17;8.30;79.80
2751;DHT22;1383;48.362;10.908;2024-03-17T05:09:43;8.30;79.50
2751;DHT22;1383;48.362;10.908;2024-03-17T05:12:11;8.20;79.50
2751;DHT22;1383;48.362;10.908;2024-03-17T05:14:37;8.20;80.30
2751;DHT22;1383;48.362;10.908;2024-03-17T05:17:03;8.30;80.00
2751;DHT22;1383;48.362;10.908;2024-03-17T05:19:29;8.20;80.10
2751;DHT22;1383;48.362;10.908;2024-03-17T05:21:55;8.30;80.50
2751;DHT22;1383;48.362;10.908;2024-03-17T05:24:21;8.30;80.20
2751;DHT22;1383;48.362;10.908;2024-03-17T05:26:47;8.40;79.70
2751;DHT22;1383;48.362;10.908;2024-03-17T05:29:13;8.40;79.40
2751;DHT22;1383;48.362;10.908;2024-03-17T05:31:39;8.40;78.00
2751;DHT22;1383;48.362;10.908;2024-03-17T05:34:07;8.40;77.30
2751;DHT22;1383;48.362;10.908;2024-03-17T05:36:34;8.30;78.20
2751;DHT22;1383;48.362;10.908;2024-03-17T05:39:00;8.30;78.40
2751;DHT22;1383;48.362;10.908;2024-03-17T05:41:26;8.30;78.50
2751;DHT22;1383;48.362;10.908;2024-03-17T05:43:53;8.30;79.10
2751;DHT22;1383;48.362;10.908;2024-03-17T05:46:24;8.40;79.50
2751;DHT22;1383;48.362;10.908;2024-03-17T05:48:51;8.30;77.90
2751;DHT22;1383;48.362;10.908;2024-03-17T05:51:17;8.30;77.60
2751;DHT22;1383;48.362;10.908;2024-03-17T05:53:43;8.40;77.40
2751;DHT22;1383;48.362;10.908;2024-03-17T05:56:12;8.40;76.90
2751;DHT22;1383;48.362;10.908;2024-03-17T05:58:39;8.40;76.80
2751;DHT22;1383;48.362;10.908;2024-03-17T06:01:05;8.30;76.30
2751;DHT22;1383;48.362;10.908;2024-03-17T06:03:34;8.30;76.70
2751;DHT22;1383;48.362;10.908;2024-03-17T06:06:04;8.40;77.20
2751;DHT22;1383;48.362;10.908;2024-03-17T06:08:30;8.50;77.40
2751;DHT22;1383;48.362;10.908;2024-03-17T06:10:56;8.60;77.20
2751;DHT22;1383;48.362;10.908;2024-03-17T06:13:26;8.60;76.50
2751;DHT22;1383;48.362;10.908;2024-03-17T06:15:54;8.70;76.20
2751;DHT22;1383;48.362;10.908;2024-03-17T06:18:20;8.80;74.40
2751;DHT22;1383;48.362;10.908;2024-03-17T06:20:47;8.90;73.60
2751;DHT22;1383;48.362;10.908;2024-03-17T06:23:16;9.00;72.10
2751;DHT22;1383;48.362;10.908;2024-03-17T06:25:47;8.80;70.60
2751;DHT22;1383;48.362;10.908;2024-03-17T06:28:15;8.90;70.50
2751;DHT22;1383;48.362;10.908;2024-03-17T06:30:56;8.90;69.80
2751;DHT22;1383;48.362;10.908;2024-03-17T06:33:25;8.80;70.60
2751;DHT22;1383;48.362;10.908;2024-03-17T06:35:52;8.80;71.30
2751;DHT22;1383;48.362;10.908;2024-03-17T06:38:18;8.90;71.50
2751;DHT22;1383;48.362;10.908;2024-03-17T06:40:53;8.90;69.90
2751;DHT22;1383;48.362;10.908;2024-03-17T06:43:20;8.90;70.50
2751;DHT22;1383;48.362;10.908;2024-03-17T06:45:56;8.90;70.10
2751;DHT22;1383;48.362;10.908;2024-03-17T06:48:22;8.60;70.50
2751;DHT22;1383;48.362;10.908;2024-03-17T06:50:49;8.60;71.20
2751;DHT22;1383;48.362;10.908;2024-03-17T06:53:17;8.80;71.30
2751;DHT22;1383;48.362;10.908;2024-03-17T06:55:43;8.70;71.30
2751;DHT22;1383;48.362;10.908;2024-03-17T06:58:09;8.80;70.50
2751;DHT22;1383;48.362;10.908;2024-03-17T07:00:35;8.70;69.50
2751;DHT22;1383;48.362;10.908;2024-03-17T07:03:01;8.70;69.80
2751;DHT22;1383;48.362;10.908;2024-03-17T07:05:27;8.70;70.70
2751;DHT22;1383;48.362;10.908;2024-03-17T07:07:52;9.00;71.40
2751;DHT22;1383;48.362;10.908;2024-03-17T07:10:18;9.10;69.90
2751;DHT22;1383;48.362;10.908;2024-03-17T07:12:44;9.30;68.70
2751;DHT22;1383;48.362;10.908;2024-03-17T07:15:10;9.30;67.10
2751;DHT22;1383;48.362;10.908;2024-03-17T07:17:36;9.20;66.50
2751;DHT22;1383;48.362;10.908;2024-03-17T07:20:03;9.00;67.60
2751;DHT22;1383;48.362;10.908;2024-03-17T07:22:34;9.10;68.50
2751;DHT22;1383;48.362;10.908;2024-03-17T07:25:00;9.20;70.00
2751;DHT22;1383;48.362;10.908;2024-03-17T07:27:30;9.30;69.50
2751;DHT22;1383;48.362;10.908;2024-03-17T07:29:56;9.30;68.10
2751;DHT22;1383;48.362;10.908;2024-03-17T07:32:22;9.50;66.90
2751;DHT22;1383;48.362;10.908;2024-03-17T07:34:49;9.70;65.30
2751;DHT22;1383;48.362;10.908;2024-03-17T07:37:16;9.60;63.40
2751;DHT22;1383;48.362;10.908;2024-03-17T07:39:41;9.50;64.60
2751;DHT22;1383;48.362;10.908;2024-03-17T07:42:07;9.50;65.50
2751;DHT22;1383;48.362;10.908;2024-03-17T07:44:33;9.50;65.40
2751;DHT22;1383;48.362;10.908;2024-03-17T07:47:03;9.70;65.50
2751;DHT22;1383;48.362;10.908;2024-03-17T07:49:30;9.80;64.60
2751;DHT22;1383;48.362;10.908;2024-03-17T07:51:56;9.90;64.50
2751;DHT22;1383;48.362;10.908;2024-03-17T07:54:27;10.00;61.70
2751;DHT22;1383;48.362;10.908;2024-03-17T07:56:53;9.80;62.50
2751;DHT22;1383;48.362;10.908;2024-03-17T07:59:19;9.80;63.90
2751;DHT22;1383;48.362;10.908;2024-03-17T08:01:45;9.80;63.90
2751;DHT22;1383;48.362;10.908;2024-03-17T08:04:14;9.90;65.00
2751;DHT22;1383;48.362;10.908;2024-03-17T08:06:40;10.00;63.10
2751;DHT22;1383;48.362;10.908;2024-03-17T08:09:15;10.20;62.70
2751;DHT22;1383;48.362;10.908;2024-03-17T08:11:42;10.50;62.80
2751;DHT22;1383;48.362;10.908;2024-03-17T08:14:12;10.80;61.00
2751;DHT22;1383;48.362;10.908;2024-03-17T08:16:40;10.90;59.10
2751;DHT22;1383;48.362;10.908;2024-03-17T08:19:06;10.70;58.80
2751;DHT22;1383;48.362;10.908;2024-03-17T08:21:32;10.80;59.00
2751;DHT22;1383;48.362;10.908;2024-03-17T08:24:01;10.80;58.40
2751;DHT22;1383;48.362;10.908;2024-03-17T08:26:27;11.00;57.80
2751;DHT22;1383;48.362;10.908;2024-03-17T08:28:53;11.20;57.40
2751;DHT22;1383;48.362;10.908;2024-03-17T08:31:18;11.40;56.90
2751;DHT22;1383;48.362;10.908;2024-03-17T08:33:44;11.70;56.00
2751;DHT22;1383;48.362;10.908;2024-03-17T08:36:10;11.70;56.30
2751;DHT22;1383;48.362;10.908;2024-03-17T08:38:37;12.10;55.80
2751;DHT22;1383;48.362;10.908;2024-03-17T08:43:33;12.50;55.10
2751;DHT22;1383;48.362;10.908;2024-03-17T08:46:01;12.50;53.10
2751;DHT22;1383;48.362;10.908;2024-03-17T08:48:30;12.70;52.80
2751;DHT22;1383;48.362;10.908;2024-03-17T08:50:57;13.00;52.70
2751;DHT22;1383;48.362;10.908;2024-03-17T08:53:23;13.40;51.00
2751;DHT22;1383;48.362;10.908;2024-03-17T08:55:50;13.30;51.00
2751;DHT22;1383;48.362;10.908;2024-03-17T08:58:16;13.70;50.80
2751;DHT22;1383;48.362;10.908;2024-03-17T09:00:42;14.00;48.90
2751;DHT22;1383;48.362;10.908;2024-03-17T09:03:09;14.10;49.00
2751;DHT22;1383;48.362;10.908;2024-03-17T09:05:46;14.10;48.00
2751;DHT22;1383;48.362;10.908;2024-03-17T09:08:22;14.20;48.70
2751;DHT22;1383;48.362;10.908;2024-03-17T09:10:50;14.30;46.90
2751;DHT22;1383;48.362;10.908;2024-03-17T09:13:17;14.30;46.90
2751;DHT22;1383;48.362;10.908;2024-03-17T09:15:59;14.20;45.40
2751;DHT22;1383;48.362;10.908;2024-03-17T09:18:29;14.00;46.70
2751;DHT22;1383;48.362;10.908;2024-03-17T09:20:57;14.10;46.50
2751;DHT22;1383;48.362;10.908;2024-03-17T09:23:23;14.30;45.20
2751;DHT22;1383;48.362;10.908;2024-03-17T09:26:01;14.70;45.40
2751;DHT22;1383;48.362;10.908;2024-03-17T09:28:28;15.00;44.50
2751;DHT22;1383;48.362;10.908;2024-03-17T09:30:55;15.10;43.70
2751;DHT22;1383;48.362;10.908;2024-03-17T09:33:23;15.20;43.00
2751;DHT22;1383;48.362;10.908;2024-03-17T09:35:57;15.40;43.40
2751;DHT22;1383;48.362;10.908;2024-03-17T09:38:23;14.80;42.80
2751;DHT22;1383;48.362;10.908;2024-03-17T09:40:50;14.50;43.40
2751;DHT22;1383;48.362;10.908;2024-03-17T09:43:22;14.80;43.90
2751;DHT22;1383;48.362;10.908;2024-03-17T09:45:49;14.90;42.60
2751;DHT22;1383;48.362;10.908;2024-03-17T09:48:17;14.80;43.90
2751;DHT22;1383;48.362;10.908;2024-03-17T09:50:50;15.10;42.40
2751;DHT22;1383;48.362;10.908;2024-03-17T09:56:15;15.50;41.10
2751;DHT22;1383;48.362;10.908;2024-03-17T09:58:41;15.70;40.40
2751;DHT22;1383;48.362;10.908;2024-03-17T10:01:07;16.10;40.10
2751;DHT22;1383;48.362;10.908;2024-03-17T10:03:52;16.30;39.00
2751;DHT22;1383;48.362;10.908;2024-03-17T10:06:24;16.60;38.60
2751;DHT22;1383;48.362;10.908;2024-03-17T10:08:53;16.50;38.30
2751;DHT22;1383;48.362;10.908;2024-03-17T10:11:21;16.60;38.80
2751;DHT22;1383;48.362;10.908;2024-03-17T10:14:12;16.70;37.90
2751;DHT22;1383;48.362;10.908;2024-03-17T10:21:29;15.90;37.50
2751;DHT22;1383;48.362;10.908;2024-03-17T12:02:29;15.80;35.70
2751;DHT22;1383;48.362;10.908;2024-03-17T12:17:52;15.30;35.00
2751;DHT22;1383;48.362;10.908;2024-03-17T12:21:26;15.20;35.70
2751;DHT22;1383;48.362;10.908;2024-03-17T12:24:20;15.60;36.20
2751;DHT22;1383;48.362;10.908;2024-03-17T12:27:58;15.70;35.10
2751;DHT22;1383;48.362;10.908;2024-03-17T12:30:24;15.90;35.40
2751;DHT22;1383;48.362;10.908;2024-03-17T12:32:50;16.00;35.20
2751;DHT22;1383;48.362;10.908;2024-03-17T12:35:17;16.00;35.00
2751;DHT22;1383;48.362;10.908;2024-03-17T12:37:44;16.00;34.40
2751;DHT22;1383;48.362;10.908;2024-03-17T12:40:21;16.10;34.40
2751;DHT22;1383;48.362;10.908;2024-03-17T12:42:51;16.10;34.50
2751;DHT22;1383;48.362;10.908;2024-03-17T12:45:22;16.10;34.70
2751;DHT22;1383;48.362;10.908;2024-03-17T12:47:49;16.00;34.60
2751;DHT22;1383;48.362;10.908;2024-03-17T12:50:15;15.90;34.60
2751;DHT22;1383;48.362;10.908;2024-03-17T12:52:52;15.90;35.10
2751;DHT22;1383;48.362;10.908;2024-03-17T12:55:19;16.00;34.90
2751;DHT22;1383;48.362;10.908;2024-03-17T13:03:35;16.00;32.80
2751;DHT22;1383;48.362;10.908;2024-03-17T13:06:05;16.00;33.70
2751;DHT22;1383;48.362;10.908;2024-03-17T13:08:32;16.10;34.30
2751;DHT22;1383;48.362;10.908;2024-03-17T13:11:02;16.10;34.50
2751;DHT22;1383;48.362;10.908;2024-03-17T13:13:31;16.20;34.30
2751;DHT22;1383;48.362;10.908;2024-03-17T13:15:57;16.30;33.10
2751;DHT22;1383;48.362;10.908;2024-03-17T13:18:24;16.30;32.80
2751;DHT22;1383;48.362;10.908;2024-03-17T13:20:50;16.30;32.80
2751;DHT22;1383;48.362;10.908;2024-03-17T13:23:17;16.30;33.10
2751;DHT22;1383;48.362;10.908;2024-03-17T13:25:44;16.30;33.10
2751;DHT22;1383;48.362;10.908;2024-03-17T13:28:11;16.20;30.80
2751;DHT22;1383;48.362;10.908;2024-03-17T13:30:37;16.30;31.50
2751;DHT22;1383;48.362;10.908;2024-03-17T13:33:04;16.10;30.90
2751;DHT22;1383;48.362;10.908;2024-03-17T13:35:38;15.90;31.80
2751;DHT22;1383;48.362;10.908;2024-03-17T13:38:08;16.00;32.30
2751;DHT22;1383;48.362;10.908;2024-03-17T13:40:36;16.00;32.80
2751;DHT22;1383;48.362;10.908;2024-03-17T13:43:03;16.10;32.90
2751;DHT22;1383;48.362;10.908;2024-03-17T13:45:41;15.90;32.90
2751;DHT22;1383;48.362;10.908;2024-03-17T13:48:08;15.80;33.60
2751;DHT22;1383;48.362;10.908;2024-03-17T13:50:40;15.90;34.30
2751;DHT22;1383;48.362;10.908;2024-03-17T13:53:10;16.10;34.00
2751;DHT22;1383;48.362;10.908;2024-03-17T13:55:36;16.20;33.90
2751;DHT22;1383;48.362;10.908;2024-03-17T13:58:03;16.30;32.80
2751;DHT22;1383;48.362;10.908;2024-03-17T14:00:31;16.20;32.60
2751;DHT22;1383;48.362;10.908;2024-03-17T14:02:57;16.10;32.70
2751;DHT22;1383;48.362;10.908;2024-03-17T14:05:24;15.90;33.10
2751;DHT22;1383;48.362;10.908;2024-03-17T14:07:54;15.80;33.30
2751;DHT22;1383;48.362;10.908;2024-03-17T14:10:22;15.80;33.40
2751;DHT22;1383;48.362;10.908;2024-03-17T14:12:49;15.70;33.90
2751;DHT22;1383;48.362;10.908;2024-03-17T14:15:15;15.70;34.10
2751;DHT22;1383;48.362;10.908;2024-03-17T14:17:45;15.60;34.30
2751;DHT22;1383;48.362;10.908;2024-03-17T14:20:13;15.60;34.60
2751;DHT22;1383;48.362;10.908;2024-03-17T14:22:40;15.60;34.90
2751;DHT22;1383;48.362;10.908;2024-03-17T14:25:16;15.50;35.20
2751;DHT22;1383;48.362;10.908;2024-03-17T14:27:43;15.50;35.30
2751;DHT22;1383;48.362;10.908;2024-03-17T14:30:11;15.60;35.50
2751;DHT22;1383;48.362;10.908;2024-03-17T14:32:40;15.60;35.70
2751;DHT22;1383;48.362;10.908;2024-03-17T14:35:06;15.50;35.70
2751;DHT22;1383;48.362;10.908;2024-03-17T14:37:32;15.40;35.80
2751;DHT22;1383;48.362;10.908;2024-03-17T14:39:58;15.30;36.40
2751;DHT22;1383;48.362;10.908;2024-03-17T14:42:25;15.30;36.70
2751;DHT22;1383;48.362;10.908;2024-03-17T14:44:51;15.30;36.50
2751;DHT22;1383;48.362;10.908;2024-03-17T14:47:17;15.30;36.50
2751;DHT22;1383;48.362;10.908;2024-03-17T14:49:43;15.20;36.80
2751;DHT22;1383;48.362;10.908;2024-03-17T14:52:11;15.30;37.20
2751;DHT22;1383;48.362;10.908;2024-03-17T14:54:37;15.40;36.50
2751;DHT22;1383;48.362;10.908;2024-03-17T14:57:03;15.40;35.80
2751;DHT22;1383;48.362;10.908;2024-03-17T14:59:29;15.40;36.50
2751;DHT22;1383;48.362;10.908;2024-03-17T15:01:55;15.30;36.90
2751;DHT22;1383;48.362;10.908;2024-03-17T15:04:21;15.30;37.10
2751;DHT22;1383;48.362;10.908;2024-03-17T15:06:47;15.30;37.20
2751;DHT22;1383;48.362;10.908;2024-03-17T15:09:13;15.30;37.30
2751;DHT22;1383;48.362;10.908;2024-03-17T15:11:39;15.30;37.20
2751;DHT22;1383;48.362;10.908;2024-03-17T15:14:05;15.40;38.10
2751;DHT22;1383;48.362;10.908;2024-03-17T15:16:37;15.50;37.90
2751;DHT22;1383;48.362;10.908;2024-03-17T15:19:05;15.50;37.90
2751;DHT22;1383;48.362;10.908;2024-03-17T15:21:31;15.60;37.50
2751;DHT22;1383;48.362;10.908;2024-03-17T15:23:57;15.50;37.00
2751;DHT22;1383;48.362;10.908;2024-03-17T15:26:24;15.40;37.10
2751;DHT22;1383;48.362;10.908;2024-03-17T15:28:50;15.30;37.20
2751;DHT22;1383;48.362;10.908;2024-03-17T15:31:16;15.30;37.20
2751;DHT22;1383;48.362;10.908;2024-03-17T15:33:43;15.20;37.20
2751;DHT22;1383;48.362;10.908;2024-03-17T15:36:10;15.20;37.20
2751;DHT22;1383;48.362;10.908;2024-03-17T15:38:37;15.10;37.30
2751;DHT22;1383;48.362;10.908;2024-03-17T15:41:08;15.10;37.20
2751;DHT22;1383;48.362;10.908;2024-03-17T15:43:38;15.10;37.70
2751;DHT22;1383;48.362;10.908;2024-03-17T15:46:13;15.10;37.50
2751;DHT22;1383;48.362;10.908;2024-03-17T15:48:39;15.20;37.70
2751;DHT22;1383;48.362;10.908;2024-03-17T15:51:05;15.10;37.70
2751;DHT22;1383;48.362;10.908;2024-03-17T15:53:31;15.00;37.70
2751;DHT22;1383;48.362;10.908;2024-03-17T15:55:59;15.00;37.80
2751;DHT22;1383;48.362;10.908;2024-03-17T15:58:26;15.00;37.60
2751;DHT22;1383;48.362;10.908;2024-03-17T16:00:54;15.00;37.80
2751;DHT22;1383;48.362;10.908;2024-03-17T16:03:21;15.00;38.10
2751;DHT22;1383;48.362;10.908;2024-03-17T16:05:51;15.10;38.30
2751;DHT22;1383;48.362;10.908;2024-03-17T16:08:19;15.10;38.10
2751;DHT22;1383;48.362;10.908;2024-03-17T16:10:51;15.10;38.10
2751;DHT22;1383;48.362;10.908;2024-03-17T16:13:22;15.10;38.30
2751;DHT22;1383;48.362;10.908;2024-03-17T16:15:51;15.10;38.10
2751;DHT22;1383;48.362;10.908;2024-03-17T16:18:20;15.00;38.40
2751;DHT22;1383;48.362;10.908;2024-03-17T16:23:16;14.90;38.90
2751;DHT22;1383;48.362;10.908;2024-03-17T16:25:43;14.90;38.90
2751;DHT22;1383;48.362;10.908;2024-03-17T16:28:13;15.00;38.80
2751;DHT22;1383;48.362;10.908;2024-03-17T16:30:40;15.00;38.40
2751;DHT22;1383;48.362;10.908;2024-03-17T16:33:06;15.00;38.40
2751;DHT22;1383;48.362;10.908;2024-03-17T16:35:33;15.00;38.70
2751;DHT22;1383;48.362;10.908;2024-03-17T16:37:59;14.90;38.90
2751;DHT22;1383;48.362;10.908;2024-03-17T16:40:24;14.90;39.00
2751;DHT22;1383;48.362;10.908;2024-03-17T16:42:50;14.90;39.70
2751;DHT22;1383;48.362;10.908;2024-03-17T16:45:20;14.80;39.10
2751;DHT22;1383;48.362;10.908;2024-03-17T16:47:50;14.80;39.40
2751;DHT22;1383;48.362;10.908;2024-03-17T16:50:16;14.80;39.60
2751;DHT22;1383;48.362;10.908;2024-03-17T16:52:42;14.80;39.60
2751;DHT22;1383;48.362;10.908;2024-03-17T16:55:09;14.80;40.00
2751;DHT22;1383;48.362;10.908;2024-03-17T16:57:35;14.70;40.00
2751;DHT22;1383;48.362;10.908;2024-03-17T17:00:03;14.60;40.20
2751;DHT22;1383;48.362;10.908;2024-03-17T17:02:43;14.50;40.30
2751;DHT22;1383;48.362;10.908;2024-03-17T17:05:13;14.50;40.80
2751;DHT22;1383;48.362;10.908;2024-03-17T17:07:43;14.30;40.60
2751;DHT22;1383;48.362;10.908;2024-03-17T17:10:13;14.30;41.10
2751;DHT22;1383;48.362;10.908;2024-03-17T17:12:39;14.30;41.20
2751;DHT22;1383;48.362;10.908;2024-03-17T17:15:13;14.20;41.50
2751;DHT22;1383;48.362;10.908;2024-03-17T17:17:39;14.20;41.80
2751;DHT22;1383;48.362;10.908;2024-03-17T17:20:06;14.20;42.20
2751;DHT22;1383;48.362;10.908;2024-03-17T17:22:32;14.20;41.90
2751;DHT22;1383;48.362;10.908;2024-03-17T17:24:58;14.20;42.30
2751;DHT22;1383;48.362;10.908;2024-03-17T17:27:24;14.10;42.20
2751;DHT22;1383;48.362;10.908;2024-03-17T17:29:49;14.00;42.30
2751;DHT22;1383;48.362;10.908;2024-03-17T17:32:15;13.90;43.60
2751;DHT22;1383;48.362;10.908;2024-03-17T17:34:41;13.80;44.00
2751;DHT22;1383;48.362;10.908;2024-03-17T17:37:07;13.80;45.00
2751;DHT22;1383;48.362;10.908;2024-03-17T17:39:37;13.70;45.60
2751;DHT22;1383;48.362;10.908;2024-03-17T17:42:04;13.60;46.80
2751;DHT22;1383;48.362;10.908;2024-03-17T17:44:32;13.40;47.50
2751;DHT22;1383;48.362;10.908;2024-03-17T17:47:01;13.40;47.90
2751;DHT22;1383;48.362;10.908;2024-03-17T17:49:28;13.40;48.10
2751;DHT22;1383;48.362;10.908;2024-03-17T17:51:54;13.30;48.30
2751;DHT22;1383;48.362;10.908;2024-03-17T17:54:20;13.20;48.70
2751;DHT22;1383;48.362;10.908;2024-03-17T17:56:48;13.10;48.90
2751;DHT22;1383;48.362;10.908;2024-03-17T17:59:14;13.20;49.00
2751;DHT22;1383;48.362;10.908;2024-03-17T18:01:41;13.20;49.10
2751;DHT22;1383;48.362;10.908;2024-03-17T18:04:07;13.20;49.10
2751;DHT22;1383;48.362;10.908;2024-03-17T18:06:33;13.30;49.50
2751;DHT22;1383;48.362;10.908;2024-03-17T18:08:59;13.20;49.90